Wausau, WI (54401)

8:03 AM CDT on July 24, 2014 (GMT -0500)
Hawthorn Hills Elementary School (KWIWAUSA4) Elev 1201 ft | 44.96 °N, 89.61 °W | Change Station

Current weather conditions updated 8 seconds ago

Clear
Clear
62.3 °F
Feels Like 62.3 °F
N
1.0
Wind Variable Wind from SSW
Gusts 7.0 mph

Today is forecast to be nearly the same temperature as yesterday.

Today
High -- | Low -- °F
--% Chance of Precip.
Yesterday
High -- | Low -- °F
Precip. -- in
5:35 AM 8:34 PM
Waning Crescent, 5% visible
Pressure 30.20 in
Visibility 10.0 miles
Clouds Clear
Dew Point 55 °F
Humidity 77%
Rainfall 0.00 in
Snow Depth Not available.
UV 2 out of 12
Pollen 6.10 out of 12
Air Quality Not available.
Flu Activity Not available.
METAR KAUW 241254Z AUTO 19005KT 10SM CLR 16/11 A3019 RMK AO2 SLP225 T01610111

More Conditions Fewer Conditions

Pressure 30.20 in
Visibility 10.0 miles
Clouds Clear
Dew Point 55 °F
Humidity 77%
Rainfall 0.00 in
Snow Depth Not available.
UV 2 out of 12
Pollen 6.10 out of 12
Air Quality Not available.
Flu Activity Not available.
METAR KAUW 241254Z AUTO 19005KT 10SM CLR 16/11 A3019 RMK AO2 SLP225 T01610111

More Conditions Fewer Conditions

10-Day Weather Forecast

Almanac

Astronomy

Jul. 24, 2014 Rise Set
Actual Time 5:35 AM CDT 8:34 PM CDT
Civil Twilight 5:00 AM CDT 9:08 PM CDT
Nautical Twilight 4:16 AM CDT 9:53 PM CDT
Astronomical Twilight 3:22 AM CDT 10:45 PM CDT
Moon 3:44 AM CDT 6:48 PM CDT
Length of Visible Light 16h 08m
Length of Day
14h 58m
Tomorrow will be 2m 6s shorter.
Waning Crescent, 5% of the Moon is Illuminated
Today
Waning Crescent
Jul 26
New
Aug 3
First Quarter
Aug 10
Full
Aug 17
Last Quarter

Today's Extremes

State Highs State Lows

Community

WunderPhotos

Upload Photos

1,736,993 photos uploaded!

Nearby

Snow Depth

Station Depth Elevation
No new snow has been reported.

Earthquake Activity

City Distance Mag. Time & Date
No recent earthquake activity has been reported nearby.
Minimum magnitude displayed is 2.5.

Coastal Water Temperatures

Place Temperature
No Stations Reporting

Nearby Weather Stations

Station Location Temp. Dew Point Humidity Wind Precip. Elev Updated Type
Hawthorn Hills Elementary School, Wausau, WI 62.3 °F 55 °F 77% SSW  at  1.0 mph 0.00 in / hr 1201 ft 8:03 AM CDT Rapid Fire
6 White Pillars, Wausau, WI 60.8 °F 54 °F 79% West  at  2.0 mph 0.00 in / hr 1381 ft 8:02 AM CDT Normal
Knopf's House, Weston, WI 55.4 °F 52 °F 90% SSE  at  2.2 mph - / hr 1214 ft 7:59 AM CDT Normal
Rib Falls Repair, Athens, WI 60.0 °F 56 °F 87% SSE  at  1.0 mph 0.00 in / hr 1348 ft 8:03 AM CDT Normal

Show More Stations Show Fewer Stations